Mannboro, Virginia
Current Conditions -  °F | °C
As of 11:15 AM on Monday 24 Nov 2014 (Local Time) from KBKT Reporting Station
Broken Clouds Broken Clouds  
Wind Chill: 68°   Ceiling: 2800
Heat Index: 68°   Visibility: 10mi
Dew Point: 57°   Wind: 21mph
Humidity: 68%   Direction: 220°SW
Pressure: 29.78"   Gusts: NA
Location:  37.25°N, 77.82°W
Report Text: KBKT 241615Z AUTO 22018KT 10SM BKN028 20/14 A2978 RMK AO1 T02000140
Loading
Personal Weather Stations






























Interactive Weather Map New forecast layout! Learn more

10-Day Weather Forecast

Advertisements
Track Severe Weather on mobile